createdAt,value
2019-04-06T00:00:34.753Z,95224.66
2019-04-06T00:03:02.356Z,95226.95
2019-04-06T00:05:30.790Z,95223.39
2019-04-06T00:07:58.367Z,95225.55
2019-04-06T00:10:26.177Z,95224.97
2019-04-06T00:12:53.794Z,95222.98
2019-04-06T00:15:21.023Z,95223.60
2019-04-06T00:17:48.507Z,95228.30
2019-04-06T00:20:16.202Z,95223.42
2019-04-06T00:22:43.926Z,95226.41
2019-04-06T00:25:12.422Z,95215.97
2019-04-06T00:27:40.042Z,95220.58
2019-04-06T00:30:08.724Z,95221.81
2019-04-06T00:32:42.665Z,95218.32
2019-04-06T00:35:10.841Z,95223.23
2019-04-06T00:37:38.388Z,95217.95
2019-04-06T00:40:06.566Z,95219.74
2019-04-06T00:42:34.209Z,95220.54
2019-04-06T00:45:01.805Z,95220.88
2019-04-06T00:47:29.880Z,95225.17
2019-04-06T00:49:57.932Z,95226.06
2019-04-06T00:52:25.914Z,95221.34
2019-04-06T00:54:53.436Z,95231.36
2019-04-06T00:57:21.031Z,95229.34
2019-04-06T00:59:51.347Z,95230.53
2019-04-06T01:02:18.946Z,95226.27
2019-04-06T01:04:46.652Z,95219.78
2019-04-06T01:07:15.005Z,95227.06
2019-04-06T01:09:43.026Z,95231.29
2019-04-06T01:12:10.469Z,95233.55
2019-04-06T01:14:38.193Z,95226.56
2019-04-06T01:17:05.781Z,95226.81
2019-04-06T01:19:35.357Z,95221.10
2019-04-06T01:22:03.235Z,95220.03
2019-04-06T01:24:31.039Z,95223.27
2019-04-06T01:26:59.541Z,95222.48
2019-04-06T01:29:27.680Z,95211.80
2019-04-06T01:31:55.708Z,95221.19
2019-04-06T01:34:23.295Z,95214.77
2019-04-06T01:36:51.384Z,95212.73
2019-04-06T01:39:19.143Z,95213.99
2019-04-06T01:41:46.925Z,95201.87
2019-04-06T01:44:15.156Z,95202.22
2019-04-06T01:46:42.587Z,95202.30
2019-04-06T01:49:10.169Z,95211.12
2019-04-06T01:51:37.681Z,95205.41
2019-04-06T01:54:05.231Z,95204.79
2019-04-06T01:56:32.915Z,95208.55
2019-04-06T01:59:00.626Z,95211.86
2019-04-06T02:01:41.249Z,95210.19
2019-04-06T02:04:08.965Z,95208.17
2019-04-06T02:06:38.177Z,95208.48
2019-04-06T02:09:06.048Z,95204.52
2019-04-06T02:11:34.027Z,95207.72
2019-04-06T02:14:01.464Z,95203.02
2019-04-06T02:16:29.300Z,95202.84
2019-04-06T02:18:56.889Z,95209.66
2019-04-06T02:21:26.246Z,95206.18
2019-04-06T02:23:53.843Z,95208.30
2019-04-06T02:26:30.136Z,95198.80
2019-04-06T02:28:50.704Z,95195.22
2019-04-06T02:31:28.127Z,95205.02
2019-04-06T02:34:11.602Z,95206.77
2019-04-06T02:36:58.094Z,95211.56
2019-04-06T02:39:45.086Z,95213.52
2019-04-06T02:42:17.294Z,95206.13
2019-04-06T02:44:45.261Z,95212.84
2019-04-06T02:47:13.771Z,95205.77
2019-04-06T02:49:41.203Z,95205.89
2019-04-06T02:52:09.347Z,95202.50
2019-04-06T02:54:36.927Z,95198.02
2019-04-06T02:57:04.627Z,95202.80
2019-04-06T02:59:32.243Z,95204.92
2019-04-06T03:01:59.909Z,95202.36
2019-04-06T03:04:27.845Z,95200.10
2019-04-06T03:06:56.165Z,95205.66
2019-04-06T03:09:23.748Z,95199.33
2019-04-06T03:11:51.292Z,95195.16
2019-04-06T03:14:19.067Z,95188.91
2019-04-06T03:16:46.494Z,95193.31
2019-04-06T03:19:13.889Z,95182.94
2019-04-06T03:21:41.918Z,95183.19
2019-04-06T03:24:09.698Z,95187.59
2019-04-06T03:26:37.185Z,95186.00
2019-04-06T03:29:04.813Z,95185.89
2019-04-06T03:31:32.746Z,95186.33
2019-04-06T03:34:00.854Z,95185.07
2019-04-06T03:36:28.491Z,95184.13
2019-04-06T03:38:56.108Z,95181.67
2019-04-06T03:41:23.994Z,95182.45
2019-04-06T03:43:51.876Z,95181.97
2019-04-06T03:46:19.571Z,95181.80
2019-04-06T03:48:47.273Z,95184.25
2019-04-06T03:51:14.781Z,95186.58
2019-04-06T03:53:42.658Z,95186.91
2019-04-06T03:56:11.946Z,95184.66
2019-04-06T03:58:39.862Z,95186.09
2019-04-06T04:01:07.296Z,95184.78
2019-04-06T04:03:35.038Z,95185.22
2019-04-06T04:06:02.680Z,95193.11
2019-04-06T04:08:30.353Z,95186.77
2019-04-06T04:10:59.506Z,95180.23
2019-04-06T04:13:27.109Z,95189.55
2019-04-06T04:15:57.205Z,95189.55
2019-04-06T04:18:25.913Z,95187.26
2019-04-06T04:20:53.493Z,95189.88
2019-04-06T04:23:21.003Z,95188.04
2019-04-06T04:25:49.019Z,95187.02
2019-04-06T04:28:17.356Z,95193.81
2019-04-06T04:30:44.863Z,95193.61
2019-04-06T04:33:14.185Z,95203.38
2019-04-06T04:35:41.956Z,95202.72
2019-04-06T04:38:09.653Z,95206.19
2019-04-06T04:40:38.096Z,95211.42
2019-04-06T04:43:07.187Z,95214.86
2019-04-06T04:45:34.730Z,95219.64
2019-04-06T04:48:02.390Z,95219.31
2019-04-06T04:50:30.153Z,95219.19
2019-04-06T04:52:57.852Z,95220.33
2019-04-06T04:55:26.008Z,95225.41
2019-04-06T04:57:54.247Z,95224.09
2019-04-06T05:00:22.187Z,95229.89
2019-04-06T05:02:50.295Z,95220.25
2019-04-06T05:05:17.840Z,95222.74
2019-04-06T05:07:45.384Z,95221.14
2019-04-06T05:10:14.687Z,95226.32
2019-04-06T05:12:44.098Z,95225.22
2019-04-06T05:15:14.915Z,95225.74
2019-04-06T05:17:42.489Z,95225.13
2019-04-06T05:20:10.481Z,95227.13
2019-04-06T05:22:38.540Z,95228.34
2019-04-06T05:25:07.268Z,95228.18
2019-04-06T05:27:34.914Z,95229.81
2019-04-06T05:30:03.453Z,95234.10
2019-04-06T05:32:31.044Z,95234.47
2019-04-06T05:35:00.122Z,95237.36
2019-04-06T05:37:27.940Z,95234.28
2019-04-06T05:39:55.666Z,95234.12
2019-04-06T05:42:23.377Z,95233.70
2019-04-06T05:44:51.375Z,95234.77
2019-04-06T05:47:19.301Z,95238.73
2019-04-06T05:49:47.355Z,95235.69
2019-04-06T05:52:15.272Z,95236.66
2019-04-06T05:54:43.784Z,95239.31
2019-04-06T05:57:11.649Z,95246.65
2019-04-06T05:59:40.970Z,95243.03
2019-04-06T06:02:09.958Z,95246.88
2019-04-06T06:04:40.277Z,95247.78
2019-04-06T06:07:08.147Z,95248.52
2019-04-06T06:09:36.414Z,95254.11
2019-04-06T06:12:03.944Z,95251.83
2019-04-06T06:14:31.601Z,95253.33
2019-04-06T06:16:59.200Z,95255.43
2019-04-06T06:19:27.735Z,95253.14
2019-04-06T06:21:55.458Z,95255.26
2019-04-06T06:24:23.279Z,95252.77
2019-04-06T06:26:51.387Z,95260.39
2019-04-06T06:29:19.435Z,95257.03
2019-04-06T06:31:47.413Z,95255.43
2019-04-06T06:34:14.976Z,95260.52
2019-04-06T06:36:42.517Z,95260.69
2019-04-06T06:39:10.978Z,95258.06
2019-04-06T06:41:39.889Z,95265.91
2019-04-06T06:44:07.355Z,95261.87
2019-04-06T06:46:36.312Z,95258.84
2019-04-06T06:49:03.809Z,95262.98
2019-04-06T06:51:31.337Z,95259.05
2019-04-06T06:53:59.625Z,95260.87
2019-04-06T06:56:29.200Z,95253.92
2019-04-06T06:58:57.918Z,95256.41
2019-04-06T07:01:26.527Z,95256.75
2019-04-06T07:03:54.051Z,95249.33
2019-04-06T07:06:24.481Z,95259.38
2019-04-06T07:08:52.141Z,95252.63
2019-04-06T07:11:20.125Z,95250.98
2019-04-06T07:13:47.922Z,95253.95
2019-04-06T07:16:15.914Z,95256.11
2019-04-06T07:18:44.021Z,95248.58
2019-04-06T07:21:11.665Z,95249.73
2019-04-06T07:32:28.101Z,95251.75
2019-04-06T07:34:56.203Z,95254.98
2019-04-06T07:37:23.801Z,95249.32
2019-04-06T07:39:52.180Z,95250.59
2019-04-06T07:42:19.729Z,95246.59
2019-04-06T07:44:47.805Z,95252.34
2019-04-06T07:47:15.768Z,95246.53
2019-04-06T07:49:46.344Z,95252.39
2019-04-06T07:52:15.613Z,95255.88
2019-04-06T07:54:43.089Z,95248.83
2019-04-06T07:57:10.958Z,95248.09
2019-04-06T07:59:38.581Z,95249.96
2019-04-06T08:02:07.170Z,95253.91
2019-04-06T08:04:35.216Z,95246.31
2019-04-06T08:07:03.521Z,95249.05
2019-04-06T08:09:33.344Z,95246.64
2019-04-06T08:12:01.459Z,95242.26
2019-04-06T08:14:29.389Z,95238.33
2019-04-06T08:16:56.959Z,95240.27
2019-04-06T08:19:24.395Z,95234.84
2019-04-06T08:21:52.526Z,95234.76
2019-04-06T08:24:20.594Z,95236.63
2019-04-06T08:26:49.575Z,95231.86
2019-04-06T08:29:18.025Z,95238.41
2019-04-06T08:31:45.744Z,95231.34
2019-04-06T08:34:14.266Z,95235.79
2019-04-06T08:36:42.063Z,95235.69
2019-04-06T08:39:10.398Z,95235.71
2019-04-06T08:41:38.114Z,95232.25
2019-04-06T08:44:06.021Z,95221.44
2019-04-06T08:46:33.683Z,95226.05
2019-04-06T08:49:02.275Z,95221.64
2019-04-06T08:51:31.377Z,95219.78
2019-04-06T08:53:59.992Z,95222.01
2019-04-06T08:56:28.404Z,95232.22
2019-04-06T08:58:55.942Z,95214.69
2019-04-06T09:01:23.892Z,95220.91
2019-04-06T09:03:52.692Z,95214.55
2019-04-06T09:06:21.397Z,95224.97
2019-04-06T09:08:50.198Z,95222.30
2019-04-06T09:11:19.150Z,95217.11
2019-04-06T09:13:46.856Z,95216.00
2019-04-06T09:16:15.564Z,95217.11
2019-04-06T09:18:44.118Z,95210.36
2019-04-06T09:21:12.980Z,95206.02
2019-04-06T09:23:40.995Z,95205.83
2019-04-06T09:26:08.605Z,95207.98
2019-04-06T09:28:37.596Z,95198.97
2019-04-06T09:31:05.327Z,95196.82
2019-04-06T09:33:34.263Z,95195.27
2019-04-06T09:36:02.488Z,95182.69
2019-04-06T09:38:30.716Z,95188.89
2019-04-06T09:40:58.419Z,95192.86
2019-04-06T09:43:26.485Z,95191.72
2019-04-06T09:46:26.654Z,95179.95
2019-04-06T09:49:12.448Z,95180.20
2019-04-06T09:52:10.365Z,95182.04
2019-04-06T09:54:50.125Z,95175.51
2019-04-06T09:57:30.976Z,95173.97
2019-04-06T10:00:06.468Z,95183.45
2019-04-06T10:02:38.894Z,95164.77
2019-04-06T10:05:38.593Z,95166.49
2019-04-06T10:08:24.617Z,95179.00
2019-04-06T10:11:14.739Z,95170.64
2019-04-06T10:14:08.581Z,95167.25
2019-04-06T10:17:02.597Z,95164.17
2019-04-06T10:19:46.216Z,95156.27
2019-04-06T10:22:38.894Z,95150.81
2019-04-06T10:25:15.589Z,95162.50
2019-04-06T10:27:51.094Z,95156.05
2019-04-06T10:30:49.014Z,95148.80
2019-04-06T10:33:28.257Z,95145.77
2019-04-06T10:36:14.287Z,95146.23
2019-04-06T10:39:01.900Z,95145.23
2019-04-06T10:41:53.269Z,95139.21
2019-04-06T10:44:39.035Z,95147.28
2019-04-06T10:47:14.030Z,95131.64
2019-04-06T10:49:49.327Z,95143.08
2019-04-06T10:52:36.327Z,95136.11
2019-04-06T10:55:25.994Z,95137.70
2019-04-06T10:58:10.880Z,95128.73
2019-04-06T11:00:55.681Z,95130.10
2019-04-06T11:03:48.926Z,95125.98
2019-04-06T11:06:32.123Z,95122.02
2019-04-06T11:09:18.891Z,95116.64
2019-04-06T11:12:05.901Z,95111.34
2019-04-06T11:15:03.466Z,95110.13
2019-04-06T11:17:51.692Z,95105.19
2019-04-06T11:20:34.979Z,95092.07
2019-04-06T11:23:33.653Z,95091.66
2019-04-06T11:26:19.969Z,95089.34
2019-04-06T11:29:04.673Z,95081.05
2019-04-06T11:31:53.290Z,95079.31
2019-04-06T11:34:41.020Z,95069.90
2019-04-06T11:37:22.628Z,95079.52
2019-04-06T11:40:12.223Z,95081.11
2019-04-06T11:42:57.584Z,95071.63
2019-04-06T11:45:36.373Z,95079.56
2019-04-06T11:48:29.698Z,95072.50
2019-04-06T11:51:14.218Z,95071.59
2019-04-06T11:54:04.190Z,95069.52
2019-04-06T11:56:45.995Z,95075.41
2019-04-06T11:59:49.391Z,95067.38
2019-04-06T12:02:42.144Z,95052.46
2019-04-06T12:05:23.850Z,95047.02
2019-04-06T12:08:17.856Z,95069.95
2019-04-06T12:11:11.297Z,95066.02
2019-04-06T12:13:58.482Z,95071.69
2019-04-06T12:16:46.005Z,95062.09
2019-04-06T12:19:33.208Z,95057.83
2019-04-06T12:22:22.832Z,95055.86
2019-04-06T12:25:09.421Z,95067.57
2019-04-06T12:28:00.253Z,95062.19
2019-04-06T12:30:38.689Z,95061.47
2019-04-06T12:33:40.194Z,95057.71
2019-04-06T12:36:15.835Z,95063.81
2019-04-06T12:39:21.354Z,95060.47
2019-04-06T12:42:08.344Z,95056.87
2019-04-06T12:44:55.500Z,95052.74
2019-04-06T12:47:41.251Z,95062.45
2019-04-06T12:50:26.378Z,95066.36
2019-04-06T12:53:26.372Z,95069.96
2019-04-06T12:56:20.888Z,95054.77
2019-04-06T12:58:58.462Z,95051.15
2019-04-06T13:01:43.988Z,95052.57
2019-04-06T13:04:30.934Z,95053.40
2019-04-06T13:07:27.225Z,95052.02
2019-04-06T13:10:14.478Z,95050.92
2019-04-06T13:13:11.218Z,95051.34
2019-04-06T13:16:06.562Z,95053.50
2019-04-06T13:18:56.720Z,95056.28
2019-04-06T13:21:49.837Z,95051.55
2019-04-06T13:24:34.561Z,95051.53
2019-04-06T13:27:24.412Z,95044.51
2019-04-06T13:30:00.991Z,95043.85
2019-04-06T13:32:38.984Z,95044.19
2019-04-06T13:35:25.278Z,95037.00
2019-04-06T13:38:00.511Z,95036.75
2019-04-06T13:40:46.391Z,95042.73
2019-04-06T13:43:40.943Z,95041.77
2019-04-06T13:46:42.979Z,95030.45
2019-04-06T13:49:28.746Z,95032.09
2019-04-06T13:52:09.478Z,95039.41
2019-04-06T13:54:56.535Z,95035.88
2019-04-06T13:57:43.690Z,95031.58
2019-04-06T14:00:30.200Z,95034.26
2019-04-06T14:03:15.958Z,95027.56
2019-04-06T14:06:15.348Z,95029.60
2019-04-06T14:08:58.716Z,95022.20
2019-04-06T14:11:41.936Z,95017.39
2019-04-06T14:14:29.907Z,95014.17
2019-04-06T14:17:25.080Z,95016.56
2019-04-06T14:20:24.922Z,95007.11
2019-04-06T14:23:11.928Z,95004.12
2019-04-06T14:26:11.127Z,94997.41
2019-04-06T14:28:52.225Z,95001.10
2019-04-06T14:31:41.113Z,94997.98
2019-04-06T14:34:22.932Z,94992.82
2019-04-06T14:37:22.545Z,94995.61
2019-04-06T14:40:08.874Z,94991.36
2019-04-06T14:42:59.511Z,94992.81
2019-04-06T14:45:45.464Z,94993.90
2019-04-06T14:48:24.489Z,95003.59
2019-04-06T14:51:09.998Z,94993.29
2019-04-06T14:53:46.244Z,95009.00
2019-04-06T14:56:25.447Z,95003.75
2019-04-06T14:59:12.591Z,95021.42
2019-04-06T15:01:57.828Z,95012.53
2019-04-06T15:04:31.098Z,95014.83
2019-04-06T15:07:24.403Z,95014.24
2019-04-06T15:09:58.136Z,95012.25
2019-04-06T15:12:43.544Z,95010.39
2019-04-06T15:15:36.688Z,95007.92
2019-04-06T15:18:16.115Z,95004.78
2019-04-06T15:20:59.727Z,95005.16
2019-04-06T15:23:37.626Z,95011.50
2019-04-06T15:26:20.673Z,95007.30
2019-04-06T15:29:08.299Z,95007.81
2019-04-06T15:32:01.028Z,95002.92
2019-04-06T15:34:45.567Z,94995.14
2019-04-06T15:37:36.544Z,95006.06
2019-04-06T15:40:33.356Z,95001.80
2019-04-06T15:43:20.292Z,94998.69
2019-04-06T15:46:07.531Z,95005.32
2019-04-06T15:48:57.910Z,95005.03
2019-04-06T15:51:33.813Z,95008.55
2019-04-06T15:54:19.840Z,94999.09
2019-04-06T15:56:56.529Z,95013.20
2019-04-06T15:59:46.167Z,95006.27
2019-04-06T16:02:31.616Z,94999.53
2019-04-06T16:05:19.129Z,95005.66
2019-04-06T16:08:24.536Z,95002.14
2019-04-06T16:11:20.804Z,94998.57
2019-04-06T16:14:13.723Z,94999.63
2019-04-06T16:16:48.009Z,94995.55
2019-04-06T16:19:22.415Z,95000.19
2019-04-06T16:22:12.671Z,94994.69
2019-04-06T16:24:50.569Z,94989.45
2019-04-06T16:27:25.656Z,94982.39
2019-04-06T16:30:11.349Z,94989.11
2019-04-06T16:33:09.053Z,94984.02
2019-04-06T16:35:48.406Z,94991.19
2019-04-06T16:38:38.706Z,94988.22
2019-04-06T16:41:29.086Z,94990.80
2019-04-06T16:44:10.258Z,94992.15
2019-04-06T16:46:55.975Z,94997.24
2019-04-06T16:49:41.381Z,94999.01
2019-04-06T16:52:32.605Z,95001.52
2019-04-06T16:55:17.764Z,95006.22
2019-04-06T16:58:03.287Z,95005.30
2019-04-06T17:00:50.755Z,95011.92
2019-04-06T17:03:34.179Z,95007.83
2019-04-06T17:06:20.418Z,95007.30
2019-04-06T17:08:56.638Z,95009.02
2019-04-06T17:11:42.345Z,95006.17
2019-04-06T17:14:34.920Z,95008.50
2019-04-06T17:17:22.125Z,94999.50
2019-04-06T17:20:11.841Z,94996.70
2019-04-06T17:23:02.058Z,95004.55
2019-04-06T17:25:47.991Z,95004.55
2019-04-06T17:28:34.080Z,95003.23
2019-04-06T17:31:09.811Z,94995.78
2019-04-06T17:33:51.423Z,95002.34
2019-04-06T17:36:28.701Z,94998.66
2019-04-06T17:39:14.502Z,94995.77
2019-04-06T17:42:19.943Z,95011.74
2019-04-06T17:45:10.377Z,95007.42
2019-04-06T17:48:10.092Z,95011.90
2019-04-06T17:51:11.611Z,95009.59
2019-04-06T17:53:46.540Z,95014.11
2019-04-06T17:56:36.112Z,95013.17
2019-04-06T17:59:24.918Z,95008.13
2019-04-06T18:02:21.349Z,95014.75
2019-04-06T18:05:08.992Z,95010.77
2019-04-06T18:07:59.380Z,95017.88
2019-04-06T18:10:58.749Z,95018.73
2019-04-06T18:13:48.910Z,95021.65
2019-04-06T18:16:18.748Z,95019.16
2019-04-06T18:18:46.684Z,95020.72
2019-04-06T18:21:14.550Z,95024.94
2019-04-06T18:23:42.278Z,95028.12
2019-04-06T18:26:10.402Z,95030.74
2019-04-06T18:28:38.204Z,95035.17
2019-04-06T18:31:12.477Z,95040.09
2019-04-06T18:33:40.246Z,95036.66
2019-04-06T18:36:08.650Z,95036.67
2019-04-06T18:38:43.280Z,95034.59
2019-04-06T18:41:11.817Z,95043.31
2019-04-06T18:43:40.531Z,95042.59
2019-04-06T18:46:08.347Z,95049.99
2019-04-06T18:48:39.473Z,95043.25
2019-04-06T18:51:07.825Z,95042.13
2019-04-06T18:53:35.761Z,95043.21
2019-04-06T18:56:04.244Z,95045.66
2019-04-06T18:58:31.707Z,95050.93
2019-04-06T19:00:59.804Z,95050.73
2019-04-06T19:03:27.582Z,95047.70
2019-04-06T19:05:56.206Z,95049.92
2019-04-06T19:08:23.758Z,95050.62
2019-04-06T19:10:52.570Z,95053.27
2019-04-06T19:13:20.742Z,95061.93
2019-04-06T19:15:49.001Z,95057.56
2019-04-06T19:18:16.826Z,95059.89
2019-04-06T19:20:44.439Z,95065.83
2019-04-06T19:23:13.777Z,95063.38
2019-04-06T19:25:42.125Z,95076.34
2019-04-06T19:28:10.256Z,95074.31
2019-04-06T19:30:38.583Z,95074.63
2019-04-06T19:33:06.749Z,95073.53
2019-04-06T19:35:35.538Z,95076.27
2019-04-06T19:38:03.508Z,95072.77
2019-04-06T19:40:31.937Z,95069.45
2019-04-06T19:43:01.748Z,95068.16
2019-04-06T19:45:30.482Z,95071.35
2019-04-06T19:47:58.670Z,95068.34
2019-04-06T19:50:27.227Z,95067.03
2019-04-06T19:52:55.238Z,95065.92
2019-04-06T19:55:23.594Z,95059.84
2019-04-06T19:57:51.739Z,95053.64
2019-04-06T20:00:20.309Z,95048.06
2019-04-06T20:02:48.328Z,95042.51
2019-04-06T20:05:16.698Z,95040.33
2019-04-06T20:07:44.582Z,95042.01
2019-04-06T20:10:13.932Z,95033.66
2019-04-06T20:12:41.612Z,95026.41
2019-04-06T20:15:09.281Z,95026.59
2019-04-06T20:17:37.478Z,95031.02
2019-04-06T20:20:05.609Z,95022.13
2019-04-06T20:22:34.124Z,95025.38
2019-04-06T20:25:02.184Z,95026.56
2019-04-06T20:27:30.605Z,95023.56
2019-04-06T20:29:58.750Z,95021.78
2019-04-06T20:32:28.311Z,95021.63
2019-04-06T20:34:55.892Z,95019.47
2019-04-06T20:37:25.194Z,95011.91
2019-04-06T20:39:54.162Z,95011.55
2019-04-06T20:42:26.871Z,95012.02
2019-04-06T20:44:54.921Z,95020.94
2019-04-06T20:47:23.183Z,95013.12
2019-04-06T20:49:50.386Z,95022.53
2019-04-06T20:52:18.328Z,95018.79
2019-04-06T20:54:46.213Z,95030.28
2019-04-06T20:57:15.520Z,95028.64
2019-04-06T20:59:44.805Z,95029.81
2019-04-06T21:02:12.951Z,95023.79
2019-04-06T21:04:41.079Z,95026.27
2019-04-06T21:07:09.500Z,95027.44
2019-04-06T21:09:37.481Z,95025.80
2019-04-06T21:12:05.275Z,95027.26
2019-04-06T21:14:33.237Z,95025.09
2019-04-06T21:17:01.433Z,95024.78
2019-04-06T21:19:30.388Z,95031.03
2019-04-06T21:21:59.012Z,95025.81
2019-04-06T21:24:28.277Z,95022.20
2019-04-06T21:26:55.808Z,95028.41
2019-04-06T21:29:23.498Z,95027.12
2019-04-06T21:31:51.935Z,95031.38
2019-04-06T21:34:19.631Z,95040.31
2019-04-06T21:36:47.314Z,95038.36
2019-04-06T21:39:14.949Z,95037.53
2019-04-06T21:41:42.977Z,95033.59
2019-04-06T21:44:12.876Z,95025.71
2019-04-06T21:46:41.295Z,95032.76
2019-04-06T21:49:09.635Z,95026.52
2019-04-06T21:51:37.919Z,95024.57
2019-04-06T21:54:06.690Z,95022.75
2019-04-06T21:56:35.915Z,95020.10
2019-04-06T21:59:04.064Z,95023.25
2019-04-06T22:01:31.908Z,95014.88
2019-04-06T22:03:59.855Z,95019.64
2019-04-06T22:06:27.513Z,95017.19
2019-04-06T22:08:55.201Z,95026.84
2019-04-06T22:11:24.038Z,95016.67
2019-04-06T22:13:52.237Z,95018.34
2019-04-06T22:16:20.137Z,95020.30
2019-04-06T22:18:47.458Z,95014.38
2019-04-06T22:21:16.263Z,95014.72
2019-04-06T22:23:45.975Z,95012.42
2019-04-06T22:26:14.553Z,95004.72
2019-04-06T22:28:42.398Z,95005.84
2019-04-06T22:31:09.971Z,95000.45
2019-04-06T22:33:38.218Z,95001.43
2019-04-06T22:36:06.644Z,95006.50
2019-04-06T22:38:34.314Z,95004.70
2019-04-06T22:41:03.903Z,95005.17
2019-04-06T22:43:31.876Z,95003.53
2019-04-06T22:45:59.920Z,95009.27
2019-04-06T22:48:28.091Z,95009.27
2019-04-06T22:50:55.627Z,95002.86
2019-04-06T22:53:23.550Z,94998.42
2019-04-06T22:55:51.160Z,94997.39
2019-04-06T22:58:18.706Z,94998.06
2019-04-06T23:00:50.984Z,95004.73
2019-04-06T23:03:32.365Z,95002.42
2019-04-06T23:06:04.027Z,95001.11
2019-04-06T23:08:31.616Z,94998.94
2019-04-06T23:10:59.075Z,95003.37
2019-04-06T23:13:27.912Z,95001.06
2019-04-06T23:15:56.413Z,95001.67
2019-04-06T23:18:25.692Z,95000.67
2019-04-06T23:20:53.855Z,95000.18
2019-04-06T23:23:22.053Z,95000.55
2019-04-06T23:25:49.543Z,95006.11
2019-04-06T23:28:16.945Z,95007.20
2019-04-06T23:30:45.260Z,95007.29
2019-04-06T23:33:13.196Z,95006.97
2019-04-06T23:35:41.269Z,95003.17
2019-04-06T23:38:09.094Z,95001.22
2019-04-06T23:40:36.736Z,94992.56
2019-04-06T23:43:04.385Z,94994.70
2019-04-06T23:45:32.467Z,94992.39
2019-04-06T23:48:00.692Z,94994.59
2019-04-06T23:50:28.386Z,94987.97
2019-04-06T23:52:56.260Z,94988.36
2019-04-06T23:55:23.932Z,94984.55
2019-04-06T23:57:51.502Z,94983.70
